createdAt,value
2018-08-10T00:00:03.813Z,65.6
2018-08-10T00:00:53.816Z,65.6
2018-08-10T00:01:43.926Z,65.6
2018-08-10T00:02:33.681Z,65.6
2018-08-10T00:03:23.736Z,65.6
2018-08-10T00:04:14.088Z,65.6
2018-08-10T00:05:04.229Z,65.6
2018-08-10T00:05:54.015Z,65.6
2018-08-10T00:06:44.304Z,65.6
2018-08-10T00:07:34.374Z,65.6
2018-08-10T00:08:23.349Z,65.6
2018-08-10T00:09:14.523Z,65.6
2018-08-10T00:10:04.548Z,65.6
2018-08-10T00:10:54.343Z,65.6
2018-08-10T00:11:43.851Z,65.6
2018-08-10T00:12:34.438Z,65.5
2018-08-10T00:13:24.506Z,65.6
2018-08-10T00:14:14.869Z,65.5
2018-08-10T00:15:04.974Z,65.5
2018-08-10T00:15:54.831Z,65.5
2018-08-10T00:16:45.047Z,65.5
2018-08-10T00:17:34.843Z,65.5
2018-08-10T00:18:24.639Z,65.5
2018-08-10T00:37:24.686Z,65.3
2018-08-10T00:38:14.487Z,65.3
2018-08-10T00:39:04.827Z,65.3
2018-08-10T00:39:54.890Z,65.3
2018-08-10T00:40:44.939Z,65.3
2018-08-10T00:41:34.439Z,65.3
2018-08-10T00:42:25.278Z,65.3
2018-08-10T00:43:15.139Z,65.3
2018-08-10T00:44:05.198Z,65.3
2018-08-10T00:44:55.394Z,65.3
2018-08-10T00:45:45.321Z,65.3
2018-08-10T00:46:35.418Z,65.3
2018-08-10T00:47:24.928Z,65.3
2018-08-10T00:48:15.289Z,65.3
2018-08-10T00:49:05.346Z,65.3
2018-08-10T00:49:55.539Z,65.3
2018-08-10T00:50:44.907Z,65.2
2018-08-10T00:51:35.791Z,65.2
2018-08-10T00:52:26.095Z,65.2
2018-08-10T00:53:15.662Z,65.2
2018-08-10T00:54:05.723Z,65.2
2018-08-10T00:54:55.808Z,65.2
2018-08-10T00:55:46.121Z,65.2
2018-08-10T00:56:35.634Z,65.2
2018-08-10T00:57:26.276Z,65.1
2018-08-10T00:58:15.843Z,65.1
2018-08-10T00:59:06.141Z,65.1
2018-08-10T00:59:56.474Z,65.1
2018-08-10T01:00:45.964Z,65.1
2018-08-10T01:01:36.041Z,65.1
2018-08-10T01:02:25.884Z,65.1
2018-08-10T01:03:16.703Z,65.1
2018-08-10T01:04:06.039Z,65.1
2018-08-10T01:04:56.405Z,65.1
2018-08-10T01:05:46.114Z,65.1
2018-08-10T01:06:36.465Z,65.1
2018-08-10T01:07:26.460Z,65.1
2018-08-10T01:08:15.802Z,65.1
2018-08-10T01:09:06.588Z,65.1
2018-08-10T01:09:57.009Z,65.1
2018-08-10T01:10:47.003Z,65.1
2018-08-10T01:11:37.054Z,65
2018-08-10T01:12:27.368Z,65.1
2018-08-10T01:13:17.621Z,65
2018-08-10T01:14:07.746Z,65
2018-08-10T01:14:57.330Z,65
2018-08-10T01:15:47.428Z,65
2018-08-10T01:16:37.904Z,65
2018-08-10T01:17:27.728Z,65
2018-08-10T01:18:17.855Z,65
2018-08-10T01:19:08.941Z,65
2018-08-10T01:19:57.999Z,64.9
2018-08-10T01:20:48.047Z,64.9
2018-08-10T01:21:38.085Z,64.9
2018-08-10T01:22:27.939Z,64.9
2018-08-10T01:23:18.244Z,64.9
2018-08-10T01:24:08.362Z,64.9
2018-08-10T01:24:58.403Z,64.9
2018-08-10T01:25:48.162Z,64.9
2018-08-10T01:26:38.503Z,64.9
2018-08-10T01:27:28.759Z,64.9
2018-08-10T01:28:18.429Z,64.9
2018-08-10T01:29:08.160Z,64.9
2018-08-10T01:29:58.719Z,64.9
2018-08-10T01:30:48.533Z,64.9
2018-08-10T01:31:38.913Z,64.9
2018-08-10T01:32:28.704Z,64.9
2018-08-10T01:33:18.493Z,64.9
2018-08-10T01:34:09.108Z,64.8
2018-08-10T01:34:59.291Z,64.8
2018-08-10T01:35:48.684Z,64.8
2018-08-10T01:36:39.000Z,64.8
2018-08-10T01:37:28.861Z,64.8
2018-08-10T01:38:19.640Z,64.8
2018-08-10T01:39:09.508Z,64.8
2018-08-10T01:40:14.115Z,64.8
2018-08-10T01:41:04.271Z,64.8
2018-08-10T01:41:39.404Z,64.8
2018-08-10T01:42:29.455Z,64.8
2018-08-10T01:43:19.509Z,64.8
2018-08-10T01:44:09.565Z,64.8
2018-08-10T01:44:59.910Z,64.8
2018-08-10T01:45:49.949Z,64.8
2018-08-10T01:46:38.930Z,64.8
2018-08-10T01:47:29.792Z,64.8
2018-08-10T01:48:19.867Z,64.8
2018-08-10T01:49:10.200Z,64.7
2018-08-10T01:50:00.290Z,64.8
2018-08-10T01:50:50.610Z,64.8
2018-08-10T01:51:40.363Z,64.7
2018-08-10T01:52:30.234Z,64.7
2018-08-10T01:53:20.780Z,64.7
2018-08-10T01:54:10.032Z,64.7
2018-08-10T01:55:00.130Z,64.7
2018-08-10T01:56:05.473Z,64.7
2018-08-10T01:56:40.790Z,64.7
2018-08-10T01:57:30.576Z,64.7
2018-08-10T01:58:20.960Z,64.6
2018-08-10T01:59:10.482Z,64.6
2018-08-10T02:00:00.038Z,64.6
2018-08-10T02:00:50.314Z,64.6
2018-08-10T02:01:40.944Z,64.6
2018-08-10T02:02:30.727Z,64.6
2018-08-10T02:03:20.506Z,64.6
2018-08-10T02:04:11.135Z,64.6
2018-08-10T02:05:01.518Z,64.6
2018-08-10T02:05:51.597Z,64.6
2018-08-10T02:06:41.654Z,64.6
2018-08-10T02:07:31.407Z,64.6
2018-08-10T02:08:21.177Z,64.6
2018-08-10T02:09:11.231Z,64.6
2018-08-10T02:10:01.864Z,64.6
2018-08-10T02:10:51.960Z,64.6
2018-08-10T02:11:41.991Z,64.5
2018-08-10T02:12:31.883Z,64.6
2018-08-10T02:13:21.546Z,64.5
2018-08-10T02:14:12.173Z,64.5
2018-08-10T02:15:02.464Z,64.5
2018-08-10T02:15:52.681Z,64.5
2018-08-10T02:16:42.091Z,64.5
2018-08-10T02:17:31.861Z,64.5
2018-08-10T02:18:22.490Z,64.5
2018-08-10T02:19:12.700Z,64.4
2018-08-10T02:20:02.607Z,64.5
2018-08-10T02:20:52.744Z,64.4
2018-08-10T02:21:42.716Z,64.4
2018-08-10T02:22:32.859Z,64.4
2018-08-10T02:23:22.843Z,64.4
2018-08-10T02:24:12.911Z,64.4
2018-08-10T02:25:52.836Z,64.4
2018-08-10T02:26:43.111Z,64.4
2018-08-10T02:27:33.004Z,64.4
2018-08-10T02:28:23.028Z,64.4
2018-08-10T02:29:12.804Z,64.4
2018-08-10T02:30:03.400Z,64.4
2018-08-10T02:30:53.676Z,64.4
2018-08-10T02:31:43.570Z,64.4
2018-08-10T02:32:33.353Z,64.4
2018-08-10T02:33:23.607Z,64.4
2018-08-10T02:34:13.122Z,64.4
2018-08-10T02:35:02.964Z,64.3
2018-08-10T02:35:53.668Z,64.4
2018-08-10T02:36:43.320Z,64.3
2018-08-10T02:37:33.733Z,64.3
2018-08-10T02:38:23.793Z,64.3
2018-08-10T02:39:13.852Z,64.3
2018-08-10T02:40:03.678Z,64.3
2018-08-10T02:40:53.429Z,64.3
2018-08-10T02:41:43.597Z,64.3
2018-08-10T02:42:34.415Z,64.3
2018-08-10T02:43:23.717Z,64.3
2018-08-10T02:44:13.765Z,64.3
2018-08-10T02:45:04.524Z,64.3
2018-08-10T02:45:53.877Z,64.3
2018-08-10T02:46:44.398Z,64.3
2018-08-10T02:47:34.279Z,64.3
2018-08-10T02:48:23.804Z,64.3
2018-08-10T02:49:14.431Z,64.3
2018-08-10T02:50:04.230Z,64.2
2018-08-10T02:50:54.261Z,64.3
2018-08-10T02:51:44.155Z,64.2
2018-08-10T02:52:33.900Z,64.2
2018-08-10T02:53:24.019Z,64.2
2018-08-10T02:54:14.042Z,64.2
2018-08-10T02:55:04.906Z,64.2
2018-08-10T02:55:54.936Z,64.2
2018-08-10T02:56:45.439Z,64.2
2018-08-10T02:57:35.508Z,64.1
2018-08-10T02:58:25.781Z,64.1
2018-08-10T02:59:15.603Z,64.1
2018-08-10T03:00:04.621Z,64.1
2018-08-10T03:00:54.672Z,64.1
2018-08-10T03:01:45.694Z,64.1
2018-08-10T03:02:35.099Z,64.1
2018-08-10T03:03:25.741Z,64.1
2018-08-10T03:04:15.764Z,64.1
2018-08-10T03:05:05.586Z,64.1
2018-08-10T03:05:55.641Z,64.1
2018-08-10T03:06:45.999Z,64.1
2018-08-10T03:07:36.301Z,64.1
2018-08-10T03:08:25.811Z,64.1
2018-08-10T03:09:15.890Z,64.1
2018-08-10T03:10:06.453Z,64.1
2018-08-10T03:10:56.037Z,64.1
2018-08-10T03:11:46.089Z,64.1
2018-08-10T03:12:36.681Z,64.1
2018-08-10T03:13:26.272Z,64
2018-08-10T03:14:16.539Z,64
2018-08-10T03:15:06.893Z,64
2018-08-10T03:16:11.635Z,64
2018-08-10T03:16:46.623Z,64
2018-08-10T03:17:36.833Z,64
2018-08-10T03:18:26.337Z,64
2018-08-10T03:19:17.252Z,64
2018-08-10T03:20:07.300Z,64
2018-08-10T03:20:56.835Z,63.9
2018-08-10T03:21:47.565Z,63.9
2018-08-10T03:22:37.056Z,63.9
2018-08-10T03:23:27.301Z,63.9
2018-08-10T03:24:17.329Z,63.9
2018-08-10T03:25:07.223Z,63.9
2018-08-10T03:25:57.994Z,63.9
2018-08-10T03:26:47.439Z,63.9
2018-08-10T03:27:37.163Z,63.9
2018-08-10T03:28:27.422Z,63.9
2018-08-10T03:29:17.256Z,63.9
2018-08-10T03:30:07.865Z,63.9
2018-08-10T03:30:57.098Z,63.9
2018-08-10T03:31:47.499Z,63.9
2018-08-10T03:32:38.000Z,63.9
2018-08-10T03:33:28.282Z,63.9
2018-08-10T03:34:17.792Z,63.9
2018-08-10T03:35:08.462Z,63.8
2018-08-10T03:35:58.481Z,63.8
2018-08-10T03:36:48.548Z,63.8
2018-08-10T03:37:38.226Z,63.8
2018-08-10T03:38:28.690Z,63.8
2018-08-10T03:39:17.732Z,63.8
2018-08-10T03:40:08.321Z,63.8
2018-08-10T03:40:58.128Z,63.8
2018-08-10T03:41:48.238Z,63.8
2018-08-10T03:42:38.260Z,63.8
2018-08-10T03:43:28.607Z,63.8
2018-08-10T03:44:18.541Z,63.8
2018-08-10T03:45:08.657Z,63.8
2018-08-10T03:45:59.016Z,63.8
2018-08-10T03:46:49.483Z,63.8
2018-08-10T03:47:39.247Z,63.8
2018-08-10T03:48:28.900Z,63.8
2018-08-10T03:49:18.695Z,63.8
2018-08-10T03:50:08.582Z,63.8
2018-08-10T03:50:58.616Z,63.8
2018-08-10T03:51:48.980Z,63.7
2018-08-10T03:52:53.689Z,63.7
2018-08-10T03:53:44.534Z,63.7
2018-08-10T03:54:19.695Z,63.7
2018-08-10T03:55:09.444Z,63.7
2018-08-10T03:56:00.028Z,63.7
2018-08-10T03:56:49.499Z,63.7
2018-08-10T03:57:39.417Z,63.7
2018-08-10T03:58:29.166Z,63.6
2018-08-10T03:59:19.228Z,63.6
2018-08-10T04:00:09.993Z,63.6
2018-08-10T04:00:59.911Z,63.6
2018-08-10T04:01:49.771Z,63.6
2018-08-10T04:02:39.842Z,63.6
2018-08-10T04:03:29.608Z,63.6
2018-08-10T04:04:19.927Z,63.6
2018-08-10T04:05:10.200Z,63.6
2018-08-10T04:06:00.861Z,63.6
2018-08-10T04:06:50.358Z,63.6
2018-08-10T04:07:40.971Z,63.6
2018-08-10T04:08:30.767Z,63.6
2018-08-10T04:09:21.110Z,63.6
2018-08-10T04:10:10.345Z,63.6
2018-08-10T04:11:00.671Z,63.6
2018-08-10T04:11:51.326Z,63.6
2018-08-10T04:12:40.627Z,63.6
2018-08-10T04:13:45.812Z,63.5
2018-08-10T04:14:21.425Z,63.5
2018-08-10T04:15:11.069Z,63.5
2018-08-10T04:16:01.304Z,63.5
2018-08-10T04:16:51.331Z,63.5
2018-08-10T04:17:41.497Z,63.5
2018-08-10T04:18:31.217Z,63.5
2018-08-10T04:19:21.636Z,63.5
2018-08-10T04:20:11.079Z,63.5
2018-08-10T04:21:02.046Z,63.5
2018-08-10T04:21:51.505Z,63.4
2018-08-10T04:22:42.219Z,63.5
2018-08-10T04:23:32.180Z,63.4
2018-08-10T04:24:21.995Z,63.4
2018-08-10T04:25:11.812Z,63.4
2018-08-10T04:26:01.854Z,63.4
2018-08-10T04:26:52.193Z,63.4
2018-08-10T04:27:42.565Z,63.4
2018-08-10T04:28:32.040Z,63.4
2018-08-10T04:29:22.110Z,63.4
2018-08-10T04:30:11.497Z,63.4
2018-08-10T05:06:57.620Z,63.1
2018-08-10T05:07:47.380Z,63.1
2018-08-10T05:08:37.745Z,63.1
2018-08-10T05:09:28.097Z,63.1
2018-08-10T05:10:17.547Z,63.1
2018-08-10T05:11:07.111Z,63.1
2018-08-10T05:11:58.305Z,63.1
2018-08-10T05:12:48.101Z,63.1
2018-08-10T05:13:37.797Z,63.1
2018-08-10T05:14:28.163Z,63.1
2018-08-10T05:15:17.942Z,63.1
2018-08-10T05:16:08.300Z,63.1
2018-08-10T05:16:58.355Z,63
2018-08-10T05:17:46.974Z,63
2018-08-10T05:18:38.821Z,63
2018-08-10T05:19:28.539Z,63
2018-08-10T05:20:18.895Z,63
2018-08-10T05:21:08.959Z,63
2018-08-10T05:21:58.736Z,63
2018-08-10T05:22:48.818Z,63
2018-08-10T05:23:38.585Z,63
2018-08-10T05:24:28.683Z,63
2018-08-10T05:25:18.691Z,62.9
2018-08-10T05:26:09.090Z,62.9
2018-08-10T05:26:58.276Z,62.9
2018-08-10T05:27:49.492Z,62.9
2018-08-10T05:28:39.549Z,62.9
2018-08-10T05:29:29.332Z,62.9
2018-08-10T05:30:19.413Z,62.9
2018-08-10T05:31:09.168Z,62.9
2018-08-10T05:31:59.829Z,62.9
2018-08-10T05:32:49.585Z,62.9
2018-08-10T05:33:39.915Z,62.9
2018-08-10T05:34:28.853Z,62.9
2018-08-10T05:35:19.468Z,62.9
2018-08-10T05:36:09.092Z,62.9
2018-08-10T05:36:59.607Z,62.9
2018-08-10T05:37:50.008Z,62.9
2018-08-10T05:38:40.323Z,62.9
2018-08-10T05:39:29.544Z,62.9
2018-08-10T05:40:19.866Z,62.9
2018-08-10T05:41:09.930Z,62.8
2018-08-10T05:42:00.565Z,62.8
2018-08-10T05:42:50.097Z,62.8
2018-08-10T05:43:39.590Z,62.8
2018-08-10T05:44:30.487Z,62.8
2018-08-10T05:45:19.393Z,62.8
2018-08-10T05:46:10.317Z,62.8
2018-08-10T05:47:01.992Z,62.8
2018-08-10T05:47:49.627Z,62.8
2018-08-10T05:48:40.827Z,62.8
2018-08-10T05:49:30.278Z,62.8
2018-08-10T05:50:20.915Z,62.8
2018-08-10T05:51:11.040Z,62.8
2018-08-10T05:52:01.148Z,62.8
2018-08-10T05:52:51.495Z,62.8
2018-08-10T05:53:41.219Z,62.7
2018-08-10T05:54:31.521Z,62.7
2018-08-10T05:55:21.062Z,62.7
2018-08-10T05:56:11.381Z,62.6
2018-08-10T05:57:01.207Z,62.6
2018-08-10T05:57:51.239Z,62.6
2018-08-10T05:58:41.631Z,62.5
2018-08-10T05:59:31.373Z,62.5
2018-08-10T06:00:22.017Z,62.5
2018-08-10T06:01:11.794Z,62.5
2018-08-10T06:02:02.104Z,62.4
2018-08-10T06:02:52.209Z,62.4
2018-08-10T06:03:42.875Z,62.4
2018-08-10T06:04:32.056Z,62.4
2018-08-10T06:05:21.818Z,62.4
2018-08-10T06:06:12.458Z,62.4
2018-08-10T06:07:02.508Z,62.4
2018-08-10T06:07:52.300Z,62.4
2018-08-10T06:08:42.098Z,62.4
2018-08-10T06:09:32.712Z,62.4
2018-08-10T06:10:22.798Z,62.4
2018-08-10T06:11:12.264Z,62.4
2018-08-10T06:12:02.894Z,62.4
2018-08-10T06:12:52.984Z,62.4
2018-08-10T06:13:43.010Z,62.3
2018-08-10T06:14:32.799Z,62.3
2018-08-10T06:15:23.280Z,62.3
2018-08-10T06:16:12.639Z,62.3
2018-08-10T06:17:02.739Z,62.3
2018-08-10T06:17:53.345Z,62.3
2018-08-10T06:18:43.107Z,62.3
2018-08-10T06:19:34.593Z,62.3
2018-08-10T06:20:23.253Z,62.3
2018-08-10T06:21:13.030Z,62.3
2018-08-10T06:22:03.437Z,62.3
2018-08-10T06:22:54.175Z,62.3
2018-08-10T06:23:43.249Z,62.3
2018-08-10T06:24:32.767Z,62.2
2018-08-10T06:25:23.134Z,62.3
2018-08-10T06:26:14.010Z,62.3
2018-08-10T06:27:03.504Z,62.3
2018-08-10T06:27:55.213Z,62.2
2018-08-10T06:28:43.626Z,62.2
2018-08-10T06:29:34.265Z,62.2
2018-08-10T06:30:22.730Z,62.2
2018-08-10T06:31:13.275Z,62.2
2018-08-10T06:32:03.040Z,62.2
2018-08-10T06:32:54.273Z,62.1
2018-08-10T06:33:45.219Z,62.2
2018-08-10T06:34:34.373Z,62.1
2018-08-10T06:35:24.718Z,62.1
2018-08-10T06:36:14.504Z,62.1
2018-08-10T06:37:04.841Z,62.1
2018-08-10T06:37:54.343Z,62.1
2018-08-10T06:38:44.971Z,62.1
2018-08-10T06:39:34.470Z,62.1
2018-08-10T06:40:24.830Z,62.1
2018-08-10T06:41:14.594Z,62.1
2018-08-10T06:42:04.671Z,62.1
2018-08-10T06:42:55.029Z,62.1
2018-08-10T06:43:45.347Z,62.1
2018-08-10T06:44:35.450Z,62.1
2018-08-10T06:45:25.288Z,62.1
2018-08-10T06:46:14.116Z,62.1
2018-08-10T06:47:05.050Z,62.1
2018-08-10T06:47:55.447Z,62
2018-08-10T06:48:45.828Z,62
2018-08-10T06:49:34.970Z,62
2018-08-10T06:50:25.915Z,62
2018-08-10T06:51:16.637Z,62
2018-08-10T06:52:06.023Z,62
2018-08-10T06:52:55.197Z,62
2018-08-10T06:53:46.158Z,61.9
2018-08-10T06:54:36.159Z,62
2018-08-10T06:55:26.256Z,61.9
2018-08-10T06:56:17.132Z,61.9
2018-08-10T06:57:06.398Z,61.9
2018-08-10T06:57:55.889Z,61.9
2018-08-10T06:58:45.456Z,61.9
2018-08-10T06:59:35.826Z,61.9
2018-08-10T07:00:26.399Z,61.9
2018-08-10T07:01:16.456Z,61.9
2018-08-10T07:02:06.755Z,61.9
2018-08-10T07:02:56.591Z,61.9
2018-08-10T07:03:46.924Z,61.9
2018-08-10T07:04:36.137Z,61.9
2018-08-10T07:05:27.114Z,61.9
2018-08-10T07:06:16.866Z,61.9
2018-08-10T07:07:06.634Z,61.9
2018-08-10T07:07:57.799Z,61.9
2018-08-10T07:08:46.784Z,61.9
2018-08-10T07:09:37.392Z,61.9
2018-08-10T07:10:26.886Z,61.8
2018-08-10T07:11:17.576Z,61.8
2018-08-10T07:12:06.999Z,61.8
2018-08-10T07:12:57.038Z,61.8
2018-08-10T07:13:47.302Z,61.8
2018-08-10T07:14:37.800Z,61.8
2018-08-10T07:15:27.561Z,61.8
2018-08-10T07:16:17.929Z,61.8
2018-08-10T07:17:07.176Z,61.8
2018-08-10T07:17:56.883Z,61.8
2018-08-10T07:18:48.162Z,61.8
2018-08-10T07:19:37.604Z,61.8
2018-08-10T07:20:28.234Z,61.8
2018-08-10T07:21:17.710Z,61.8
2018-08-10T07:22:08.093Z,61.8
2018-08-10T07:22:58.416Z,61.8
2018-08-10T07:23:48.562Z,61.7
2018-08-10T07:24:37.982Z,61.7
2018-08-10T07:25:28.045Z,61.7
2018-08-10T07:26:18.687Z,61.7
2018-08-10T07:27:08.885Z,61.7
2018-08-10T07:27:58.588Z,61.7
2018-08-10T07:28:48.604Z,61.7
2018-08-10T07:29:38.897Z,61.7
2018-08-10T07:30:29.014Z,61.7
2018-08-10T07:31:18.748Z,61.6
2018-08-10T07:32:08.817Z,61.6
2018-08-10T07:32:58.703Z,61.6
2018-08-10T07:33:48.946Z,61.6
2018-08-10T07:34:39.347Z,61.6
2018-08-10T07:35:29.356Z,61.6
2018-08-10T07:36:19.475Z,61.6
2018-08-10T07:37:09.213Z,61.6
2018-08-10T07:37:59.271Z,61.6
2018-08-10T07:38:49.354Z,61.6
2018-08-10T07:39:38.866Z,61.6
2018-08-10T07:40:29.533Z,61.6
2018-08-10T07:41:19.567Z,61.6
2018-08-10T07:42:09.051Z,61.6
2018-08-10T07:42:59.731Z,61.6
2018-08-10T07:43:50.036Z,61.6
2018-08-10T07:44:39.893Z,61.6
2018-08-10T07:45:29.422Z,61.6
2018-08-10T07:46:20.043Z,61.6
2018-08-10T07:47:10.026Z,61.5
2018-08-10T07:48:00.366Z,61.6
2018-08-10T07:48:50.161Z,61.5
2018-08-10T07:49:40.231Z,61.5
2018-08-10T07:50:30.306Z,61.5
2018-08-10T07:51:20.370Z,61.5
2018-08-10T07:52:10.579Z,61.5
2018-08-10T07:52:59.544Z,61.5
2018-08-10T07:53:50.817Z,61.5
2018-08-10T07:54:40.893Z,61.4
2018-08-10T07:55:30.487Z,61.4
2018-08-10T07:56:20.216Z,61.4
2018-08-10T07:57:10.510Z,61.4
2018-08-10T07:58:00.843Z,61.4
2018-08-10T07:58:51.214Z,61.4
2018-08-10T07:59:40.711Z,61.4
2018-08-10T08:00:31.038Z,61.4
2018-08-10T08:01:21.475Z,61.4
2018-08-10T08:02:10.883Z,61.4
2018-08-10T08:03:01.240Z,61.4
2018-08-10T08:03:51.332Z,61.4
2018-08-10T08:04:41.092Z,61.4
2018-08-10T08:05:31.193Z,61.4
2018-08-10T08:06:21.845Z,61.4
2018-08-10T08:07:16.530Z,61.4
2018-08-10T08:08:02.118Z,61.4
2018-08-10T08:08:51.671Z,61.4
2018-08-10T08:09:42.036Z,61.4
2018-08-10T08:10:32.017Z,61.3
2018-08-10T08:11:21.875Z,61.3
2018-08-10T08:12:12.237Z,61.3
2018-08-10T08:13:02.061Z,61.3
2018-08-10T08:13:53.142Z,61.3
2018-08-10T08:14:41.612Z,61.3
2018-08-10T08:15:31.935Z,61.3
2018-08-10T08:16:21.715Z,61.3
2018-08-10T08:17:12.657Z,61.3
2018-08-10T08:18:02.426Z,61.3
2018-08-10T08:18:51.914Z,61.3
2018-08-10T08:19:43.791Z,61.3
2018-08-10T08:20:32.636Z,61.3
2018-08-10T08:21:22.669Z,61.3
2018-08-10T08:22:13.095Z,61.3
2018-08-10T08:23:02.560Z,61.3
2018-08-10T08:23:52.680Z,61.3
2018-08-10T08:24:42.646Z,61.2
2018-08-10T08:25:32.541Z,61.3
2018-08-10T08:26:23.420Z,61.2
2018-08-10T08:27:13.801Z,61.2
2018-08-10T08:28:03.259Z,61.2
2018-08-10T08:28:53.268Z,61.2
2018-08-10T08:29:43.068Z,61.2
2018-08-10T08:30:33.425Z,61.2
2018-08-10T08:31:22.911Z,61.2
2018-08-10T08:32:12.724Z,61.1
2018-08-10T08:33:03.857Z,61.1
2018-08-10T08:33:53.974Z,61.2
2018-08-10T08:34:44.931Z,61.1
2018-08-10T08:35:32.328Z,61.1
2018-08-10T08:36:23.881Z,61.1
2018-08-10T08:37:13.722Z,61.1
2018-08-10T08:38:04.305Z,61.1
2018-08-10T08:38:54.033Z,61.1
2018-08-10T08:39:44.121Z,61.1
2018-08-10T08:40:34.179Z,61.1
2018-08-10T08:41:23.658Z,61.1
2018-08-10T08:42:14.291Z,61.1
2018-08-10T08:43:04.406Z,61.1
2018-08-10T08:43:54.410Z,61.1
2018-08-10T08:44:44.246Z,61.1
2018-08-10T08:45:34.543Z,61.1
2018-08-10T08:46:26.876Z,61.1
2018-08-10T08:47:14.688Z,61.1
2018-08-10T08:48:04.777Z,61.1
2018-08-10T08:48:54.556Z,61.1
2018-08-10T08:49:44.406Z,61
2018-08-10T08:50:34.374Z,61
2018-08-10T08:51:25.310Z,61
2018-08-10T08:52:15.379Z,61
2018-08-10T08:53:05.169Z,61
2018-08-10T08:53:55.499Z,61
2018-08-10T08:54:45.673Z,61
2018-08-10T08:55:35.660Z,61
2018-08-10T08:56:24.838Z,61
2018-08-10T08:57:16.536Z,61
2018-08-10T08:58:05.553Z,60.9
2018-08-10T08:58:55.610Z,60.9
2018-08-10T08:59:45.656Z,60.9
2018-08-10T09:00:35.739Z,60.9
2018-08-10T09:01:25.533Z,60.9
2018-08-10T09:02:15.850Z,60.9
2018-08-10T09:03:05.910Z,60.9
2018-08-10T09:03:55.992Z,60.9
2018-08-10T09:21:12.847Z,60.8
2018-08-10T09:22:03.119Z,60.8
2018-08-10T09:22:52.686Z,60.8
2018-08-10T09:23:42.991Z,60.8
2018-08-10T09:24:33.303Z,60.8
2018-08-10T09:25:23.362Z,60.7
2018-08-10T09:26:13.140Z,60.7
2018-08-10T09:27:04.247Z,60.8
2018-08-10T09:27:53.628Z,60.7
2018-08-10T09:28:43.639Z,60.7
2018-08-10T09:29:33.961Z,60.7
2018-08-10T09:30:23.777Z,60.7
2018-08-10T09:31:14.115Z,60.7
2018-08-10T09:32:03.924Z,60.7
2018-08-10T09:32:53.849Z,60.7
2018-08-10T09:33:43.841Z,60.6
2018-08-10T09:34:34.422Z,60.7
2018-08-10T09:35:24.156Z,60.6
2018-08-10T09:36:14.528Z,60.6
2018-08-10T09:37:04.566Z,60.6
2018-08-10T09:37:54.648Z,60.6
2018-08-10T09:38:44.526Z,60.6
2018-08-10T09:39:34.457Z,60.6
2018-08-10T09:40:24.443Z,60.6
2018-08-10T09:41:14.308Z,60.6
2018-08-10T09:42:05.045Z,60.6
2018-08-10T09:42:54.583Z,60.6
2018-08-10T09:43:45.197Z,60.6
2018-08-10T09:44:34.036Z,60.6
2018-08-10T09:45:24.893Z,60.6
2018-08-10T09:46:15.005Z,60.6
2018-08-10T09:47:04.525Z,60.6
2018-08-10T09:47:54.933Z,60.6
2018-08-10T09:48:45.203Z,60.6
2018-08-10T09:49:35.289Z,60.6
2018-08-10T09:50:25.353Z,60.5
2018-08-10T09:51:15.652Z,60.5
2018-08-10T09:52:04.941Z,60.5
2018-08-10T09:52:55.812Z,60.4
2018-08-10T09:53:45.850Z,60.4
2018-08-10T09:54:35.415Z,60.5
2018-08-10T09:55:25.990Z,60.5
2018-08-10T09:56:15.198Z,60.6
2018-08-10T09:57:05.536Z,60.6
2018-08-10T09:57:56.221Z,60.7
2018-08-10T09:58:45.376Z,60.7
2018-08-10T09:59:35.745Z,60.8
2018-08-10T10:00:26.107Z,60.8
2018-08-10T10:01:16.197Z,60.9
2018-08-10T10:02:06.557Z,60.9
2018-08-10T10:02:56.305Z,61
2018-08-10T10:03:46.662Z,61.1
2018-08-10T10:04:36.162Z,61.2
2018-08-10T10:05:26.814Z,61.3
2018-08-10T10:06:16.078Z,61.3
2018-08-10T10:07:06.933Z,61.4
2018-08-10T10:07:56.419Z,61.4
2018-08-10T10:08:46.759Z,61.6
2018-08-10T10:09:36.950Z,61.6
2018-08-10T10:10:26.623Z,61.7
2018-08-10T10:11:17.223Z,61.8
2018-08-10T10:12:07.063Z,61.9
2018-08-10T10:12:57.365Z,61.9
2018-08-10T10:13:47.441Z,62
2018-08-10T10:14:37.600Z,62.1
2018-08-10T10:15:27.082Z,62.2
2018-08-10T10:16:17.725Z,62.2
2018-08-10T10:17:07.517Z,62.3
2018-08-10T10:17:58.129Z,62.3
2018-08-10T10:18:47.668Z,62.3
2018-08-10T10:19:36.829Z,62.4
2018-08-10T10:20:27.311Z,62.4
2018-08-10T10:21:18.154Z,62.6
2018-08-10T10:22:07.923Z,62.6
2018-08-10T10:22:58.310Z,62.6
2018-08-10T10:23:47.719Z,62.8
2018-08-10T10:24:38.077Z,62.8
2018-08-10T10:25:27.839Z,62.9
2018-08-10T10:26:18.214Z,62.9
2018-08-10T10:27:08.753Z,63
2018-08-10T10:27:57.630Z,63.1
2018-08-10T10:28:47.823Z,63.2
2018-08-10T10:29:38.779Z,63.3
2018-08-10T10:30:28.576Z,63.3
2018-08-10T10:31:18.637Z,63.4
2018-08-10T10:32:08.086Z,63.5
2018-08-10T10:32:58.519Z,63.6
2018-08-10T10:33:48.787Z,63.6
2018-08-10T10:34:39.165Z,63.7
2018-08-10T10:35:29.162Z,63.8
2018-08-10T10:36:19.227Z,63.8
2018-08-10T10:37:09.272Z,63.8
2018-08-10T10:37:59.357Z,63.9
2018-08-10T10:38:48.061Z,63.9
2018-08-10T10:39:39.452Z,64
2018-08-10T10:40:29.257Z,64.1
2018-08-10T10:41:19.467Z,64.1
2018-08-10T10:42:09.175Z,64.1
2018-08-10T10:42:59.731Z,64.2
2018-08-10T10:43:49.559Z,64.3
2018-08-10T10:44:38.766Z,64.3
2018-08-10T10:45:29.675Z,64.4
2018-08-10T10:46:19.998Z,64.4
2018-08-10T10:47:10.056Z,64.5
2018-08-10T10:47:59.561Z,64.6
2018-08-10T10:48:50.912Z,64.6
2018-08-10T10:49:39.139Z,64.7
2018-08-10T10:50:30.058Z,64.8
2018-08-10T10:51:19.819Z,64.8
2018-08-10T10:52:10.168Z,64.9
2018-08-10T10:52:59.951Z,64.9
2018-08-10T10:53:50.549Z,65
2018-08-10T10:54:40.071Z,65
2018-08-10T10:55:30.695Z,65.1
2018-08-10T10:56:20.587Z,65.1
2018-08-10T10:57:10.557Z,65.2
2018-08-10T10:58:00.889Z,65.3
2018-08-10T10:58:50.420Z,65.3
2018-08-10T10:59:40.472Z,65.4
2018-08-10T11:00:30.270Z,65.4
2018-08-10T11:01:21.147Z,65.5
2018-08-10T11:02:10.931Z,65.6
2018-08-10T11:03:01.295Z,65.6
2018-08-10T11:03:50.787Z,65.6
2018-08-10T11:04:41.099Z,65.7
2018-08-10T11:05:31.005Z,65.8
2018-08-10T11:06:22.132Z,65.9
2018-08-10T11:07:11.577Z,65.9
2018-08-10T11:08:01.382Z,65.9
2018-08-10T11:08:51.422Z,66.1
2018-08-10T11:09:41.767Z,66.1
2018-08-10T11:10:31.567Z,66.1
2018-08-10T11:11:21.899Z,66.2
2018-08-10T11:12:11.976Z,66.3
2018-08-10T11:13:01.786Z,66.3
2018-08-10T11:13:51.555Z,66.3
2018-08-10T11:14:41.629Z,66.4
2018-08-10T11:15:31.991Z,66.4
2018-08-10T11:16:21.749Z,66.4
2018-08-10T11:17:12.096Z,66.5
2018-08-10T11:18:03.016Z,66.6
2018-08-10T11:18:52.571Z,66.6
2018-08-10T11:19:41.764Z,66.6
2018-08-10T11:20:32.416Z,66.8
2018-08-10T11:21:22.464Z,66.8
2018-08-10T11:22:12.560Z,66.8
2018-08-10T11:23:02.314Z,66.9
2018-08-10T11:23:52.709Z,66.9
2018-08-10T11:24:42.746Z,66.9
2018-08-10T11:25:33.243Z,67
2018-08-10T11:26:23.185Z,67.1
2018-08-10T11:27:12.371Z,67.1
2018-08-10T11:28:03.281Z,67.1
2018-08-10T11:28:52.782Z,67.1
2018-08-10T11:29:42.828Z,67.2
2018-08-10T11:30:33.498Z,67.3
2018-08-10T11:31:23.256Z,67.3
2018-08-10T11:32:13.441Z,67.3
2018-08-10T11:33:03.716Z,67.4
2018-08-10T11:33:53.445Z,67.4
2018-08-10T11:34:43.500Z,67.4
2018-08-10T11:35:33.022Z,67.5
2018-08-10T11:36:23.393Z,67.6
2018-08-10T11:37:13.984Z,67.6
2018-08-10T11:38:04.047Z,67.6
2018-08-10T11:38:53.857Z,67.6
2018-08-10T11:39:43.660Z,67.7
2018-08-10T11:40:33.536Z,67.8
2018-08-10T11:41:23.916Z,67.8
2018-08-10T11:42:14.154Z,67.8
2018-08-10T11:43:04.454Z,67.8
2018-08-10T11:43:54.216Z,67.8
2018-08-10T11:44:44.566Z,67.9
2018-08-10T11:45:34.382Z,67.9
2018-08-10T11:46:24.670Z,67.9
2018-08-10T11:47:14.483Z,68
2018-08-10T11:48:04.820Z,68
2018-08-10T11:48:54.621Z,68.1
2018-08-10T11:49:44.686Z,68.1
2018-08-10T11:50:34.469Z,68.1
2018-08-10T11:51:24.806Z,68.1
2018-08-10T11:52:15.124Z,68.2
2018-08-10T11:53:04.651Z,68.2
2018-08-10T11:53:55.022Z,68.2
2018-08-10T11:54:45.063Z,68.3
2018-08-10T11:55:34.886Z,68.3
2018-08-10T11:56:25.316Z,68.3
2018-08-10T11:57:15.074Z,68.4
2018-08-10T11:58:05.387Z,68.4
2018-08-10T11:58:55.678Z,68.4
2018-08-10T11:59:45.198Z,68.4
2018-08-10T12:00:35.035Z,68.4
2018-08-10T12:01:25.587Z,68.4
2018-08-10T12:02:15.367Z,68.5
2018-08-10T12:03:06.124Z,68.6
2018-08-10T12:03:55.510Z,68.6
2018-08-10T12:04:45.564Z,68.6
2018-08-10T12:05:35.661Z,68.6
2018-08-10T12:06:26.004Z,68.6
2018-08-10T12:07:16.085Z,68.6
2018-08-10T12:08:06.414Z,68.7
2018-08-10T12:08:56.480Z,68.7
2018-08-10T12:09:46.229Z,68.8
2018-08-10T12:10:36.594Z,68.8
2018-08-10T12:11:25.814Z,68.8
2018-08-10T12:12:16.395Z,68.8
2018-08-10T12:13:06.511Z,68.8
2018-08-10T12:13:56.815Z,68.9
2018-08-10T12:14:46.381Z,68.9
2018-08-10T12:15:36.950Z,68.9
2018-08-10T12:16:26.767Z,68.9
2018-08-10T12:17:16.247Z,68.9
2018-08-10T12:18:06.898Z,68.9
2018-08-10T12:18:57.065Z,68.9
2018-08-10T12:19:46.796Z,68.9
2018-08-10T12:20:37.379Z,69